sensor_id;sensor_type;location;lat;lon;timestamp;temperature;humidity
67275;DHT22;55463;52.324;5.122;2022-12-01T00:00:25;5.44;99.29
67275;DHT22;55463;52.324;5.122;2022-12-01T00:02:51;5.42;99.38
67275;DHT22;55463;52.324;5.122;2022-12-01T00:05:16;5.44;99.49
67275;DHT22;55463;52.324;5.122;2022-12-01T00:07:41;5.45;99.48
67275;DHT22;55463;52.324;5.122;2022-12-01T00:10:09;5.48;99.42
67275;DHT22;55463;52.324;5.122;2022-12-01T00:12:54;5.51;99.51
67275;DHT22;55463;52.324;5.122;2022-12-01T00:15:20;5.54;99.49
67275;DHT22;55463;52.324;5.122;2022-12-01T00:17:46;5.56;99.31
67275;DHT22;55463;52.324;5.122;2022-12-01T00:20:12;5.58;99.31
67275;DHT22;55463;52.324;5.122;2022-12-01T00:22:42;5.59;99.24
67275;DHT22;55463;52.324;5.122;2022-12-01T00:25:07;5.59;99.30
67275;DHT22;55463;52.324;5.122;2022-12-01T00:27:32;5.60;99.27
67275;DHT22;55463;52.324;5.122;2022-12-01T00:29:58;5.60;99.41
67275;DHT22;55463;52.324;5.122;2022-12-01T00:32:23;5.60;99.39
67275;DHT22;55463;52.324;5.122;2022-12-01T00:34:48;5.63;99.36
67275;DHT22;55463;52.324;5.122;2022-12-01T00:37:14;5.65;99.30
67275;DHT22;55463;52.324;5.122;2022-12-01T00:39:39;5.66;99.27
67275;DHT22;55463;52.324;5.122;2022-12-01T00:42:04;5.69;99.15
67275;DHT22;55463;52.324;5.122;2022-12-01T00:44:30;5.68;99.32
67275;DHT22;55463;52.324;5.122;2022-12-01T00:46:55;5.68;99.30
67275;DHT22;55463;52.324;5.122;2022-12-01T00:49:20;5.69;99.29
67275;DHT22;55463;52.324;5.122;2022-12-01T00:51:46;5.69;99.29
67275;DHT22;55463;52.324;5.122;2022-12-01T00:54:11;5.72;99.28
67275;DHT22;55463;52.324;5.122;2022-12-01T00:56:37;5.73;99.10
67275;DHT22;55463;52.324;5.122;2022-12-01T00:59:02;5.72;99.28
67275;DHT22;55463;52.324;5.122;2022-12-01T01:01:27;5.76;99.13
67275;DHT22;55463;52.324;5.122;2022-12-01T01:03:53;5.73;99.17
67275;DHT22;55463;52.324;5.122;2022-12-01T01:06:18;5.72;99.16
67275;DHT22;55463;52.324;5.122;2022-12-01T01:08:43;5.72;99.31
67275;DHT22;55463;52.324;5.122;2022-12-01T01:11:09;5.73;99.14
67275;DHT22;55463;52.324;5.122;2022-12-01T01:13:35;5.77;99.22
67275;DHT22;55463;52.324;5.122;2022-12-01T01:16:03;5.75;99.32
67275;DHT22;55463;52.324;5.122;2022-12-01T01:18:29;5.76;99.20
67275;DHT22;55463;52.324;5.122;2022-12-01T01:20:59;5.76;99.43
67275;DHT22;55463;52.324;5.122;2022-12-01T01:23:25;5.73;99.21
67275;DHT22;55463;52.324;5.122;2022-12-01T01:25:50;5.73;99.28
67275;DHT22;55463;52.324;5.122;2022-12-01T01:28:17;5.76;99.18
67275;DHT22;55463;52.324;5.122;2022-12-01T01:30:42;5.73;99.22
67275;DHT22;55463;52.324;5.122;2022-12-01T01:33:08;5.73;99.22
67275;DHT22;55463;52.324;5.122;2022-12-01T01:35:33;5.75;99.17
67275;DHT22;55463;52.324;5.122;2022-12-01T01:37:58;5.75;99.21
67275;DHT22;55463;52.324;5.122;2022-12-01T01:40:24;5.75;98.96
67275;DHT22;55463;52.324;5.122;2022-12-01T01:42:49;5.75;98.94
67275;DHT22;55463;52.324;5.122;2022-12-01T01:45:28;5.70;98.65
67275;DHT22;55463;52.324;5.122;2022-12-01T01:47:54;5.73;98.55
67275;DHT22;55463;52.324;5.122;2022-12-01T01:50:24;5.62;98.32
67275;DHT22;55463;52.324;5.122;2022-12-01T01:52:57;5.51;98.29
67275;DHT22;55463;52.324;5.122;2022-12-01T01:55:24;5.45;98.26
67275;DHT22;55463;52.324;5.122;2022-12-01T01:57:50;5.38;98.77
67275;DHT22;55463;52.324;5.122;2022-12-01T02:00:17;5.37;98.65
67275;DHT22;55463;52.324;5.122;2022-12-01T02:02:44;5.32;98.80
67275;DHT22;55463;52.324;5.122;2022-12-01T02:05:24;5.34;99.33
67275;DHT22;55463;52.324;5.122;2022-12-01T02:07:52;5.34;99.39
67275;DHT22;55463;52.324;5.122;2022-12-01T02:10:20;5.31;99.34
67275;DHT22;55463;52.324;5.122;2022-12-01T02:16:06;5.41;99.73
67275;DHT22;55463;52.324;5.122;2022-12-01T02:21:26;5.52;99.65
67275;DHT22;55463;52.324;5.122;2022-12-01T02:34:45;5.60;99.27
67275;DHT22;55463;52.324;5.122;2022-12-01T02:37:32;5.59;99.32
67275;DHT22;55463;52.324;5.122;2022-12-01T02:40:11;5.58;99.29
67275;DHT22;55463;52.324;5.122;2022-12-01T02:42:40;5.55;98.80
67275;DHT22;55463;52.324;5.122;2022-12-01T02:48:26;5.47;99.19
67275;DHT22;55463;52.324;5.122;2022-12-01T02:50:54;5.48;99.29
67275;DHT22;55463;52.324;5.122;2022-12-01T02:53:20;5.49;99.40
67275;DHT22;55463;52.324;5.122;2022-12-01T02:55:57;5.54;99.55
67275;DHT22;55463;52.324;5.122;2022-12-01T02:58:22;5.54;99.56
67275;DHT22;55463;52.324;5.122;2022-12-01T03:06:22;5.63;99.48
67275;DHT22;55463;52.324;5.122;2022-12-01T03:09:14;5.63;99.53
67275;DHT22;55463;52.324;5.122;2022-12-01T03:15:01;5.63;99.42
67275;DHT22;55463;52.324;5.122;2022-12-01T03:17:33;5.65;99.53
67275;DHT22;55463;52.324;5.122;2022-12-01T03:20:13;5.66;99.59
67275;DHT22;55463;52.324;5.122;2022-12-01T03:22:45;5.65;99.47
67275;DHT22;55463;52.324;5.122;2022-12-01T03:25:14;5.65;99.55
67275;DHT22;55463;52.324;5.122;2022-12-01T03:27:43;5.68;99.58
67275;DHT22;55463;52.324;5.122;2022-12-01T03:30:10;5.68;99.49
67275;DHT22;55463;52.324;5.122;2022-12-01T03:32:45;5.72;99.44
67275;DHT22;55463;52.324;5.122;2022-12-01T03:35:20;5.69;99.40
67275;DHT22;55463;52.324;5.122;2022-12-01T03:37:54;5.70;99.26
67275;DHT22;55463;52.324;5.122;2022-12-01T03:40:22;5.75;99.19
67275;DHT22;55463;52.324;5.122;2022-12-01T03:45:45;5.76;98.95
67275;DHT22;55463;52.324;5.122;2022-12-01T03:48:08;5.73;99.18
67275;DHT22;55463;52.324;5.122;2022-12-01T03:54:06;5.76;99.07
67275;DHT22;55463;52.324;5.122;2022-12-01T03:56:37;5.72;98.85
67275;DHT22;55463;52.324;5.122;2022-12-01T03:59:05;5.69;99.10
67275;DHT22;55463;52.324;5.122;2022-12-01T04:01:33;5.73;98.95
67275;DHT22;55463;52.324;5.122;2022-12-01T04:04:09;5.72;98.93
67275;DHT22;55463;52.324;5.122;2022-12-01T04:06:42;5.69;98.80
67275;DHT22;55463;52.324;5.122;2022-12-01T04:09:08;5.63;98.80
67275;DHT22;55463;52.324;5.122;2022-12-01T04:11:34;5.62;98.78
67275;DHT22;55463;52.324;5.122;2022-12-01T04:14:17;5.58;98.59
67275;DHT22;55463;52.324;5.122;2022-12-01T04:16:43;5.51;98.77
67275;DHT22;55463;52.324;5.122;2022-12-01T04:19:09;5.49;98.79
67275;DHT22;55463;52.324;5.122;2022-12-01T04:21:34;5.45;98.79
67275;DHT22;55463;52.324;5.122;2022-12-01T04:24:00;5.40;98.71
67275;DHT22;55463;52.324;5.122;2022-12-01T04:26:30;5.35;98.36
67275;DHT22;55463;52.324;5.122;2022-12-01T04:28:57;5.26;98.30
67275;DHT22;55463;52.324;5.122;2022-12-01T04:31:22;5.23;98.55
67275;DHT22;55463;52.324;5.122;2022-12-01T04:33:48;5.16;98.22
67275;DHT22;55463;52.324;5.122;2022-12-01T04:36:13;5.07;98.73
67275;DHT22;55463;52.324;5.122;2022-12-01T04:38:38;5.06;98.78
67275;DHT22;55463;52.324;5.122;2022-12-01T04:41:08;5.03;98.74
67275;DHT22;55463;52.324;5.122;2022-12-01T04:43:34;5.00;98.93
67275;DHT22;55463;52.324;5.122;2022-12-01T04:45:59;4.95;98.31
67275;DHT22;55463;52.324;5.122;2022-12-01T04:48:25;4.85;98.19
67275;DHT22;55463;52.324;5.122;2022-12-01T04:50:50;4.75;98.32
67275;DHT22;55463;52.324;5.122;2022-12-01T04:53:15;4.65;98.39
67275;DHT22;55463;52.324;5.122;2022-12-01T04:55:41;4.58;98.76
67275;DHT22;55463;52.324;5.122;2022-12-01T04:58:06;4.52;98.61
67275;DHT22;55463;52.324;5.122;2022-12-01T05:00:32;4.49;99.13
67275;DHT22;55463;52.324;5.122;2022-12-01T05:02:58;4.47;99.27
67275;DHT22;55463;52.324;5.122;2022-12-01T05:05:23;4.49;99.24
67275;DHT22;55463;52.324;5.122;2022-12-01T05:07:50;4.48;99.25
67275;DHT22;55463;52.324;5.122;2022-12-01T05:10:15;4.47;99.67
67275;DHT22;55463;52.324;5.122;2022-12-01T05:12:43;4.47;99.48
67275;DHT22;55463;52.324;5.122;2022-12-01T05:15:10;4.49;99.80
67275;DHT22;55463;52.324;5.122;2022-12-01T05:17:36;4.54;99.99
67275;DHT22;55463;52.324;5.122;2022-12-01T05:20:01;4.49;99.67
67275;DHT22;55463;52.324;5.122;2022-12-01T05:22:44;4.45;99.93
67275;DHT22;55463;52.324;5.122;2022-12-01T05:25:10;4.48;99.81
67275;DHT22;55463;52.324;5.122;2022-12-01T05:27:35;4.44;99.75
67275;DHT22;55463;52.324;5.122;2022-12-01T05:30:00;4.40;99.45
67275;DHT22;55463;52.324;5.122;2022-12-01T05:32:26;4.34;99.33
67275;DHT22;55463;52.324;5.122;2022-12-01T05:34:51;4.33;99.38
67275;DHT22;55463;52.324;5.122;2022-12-01T05:37:16;4.25;99.14
67275;DHT22;55463;52.324;5.122;2022-12-01T05:39:42;4.24;99.99
67275;DHT22;55463;52.324;5.122;2022-12-01T05:42:07;4.23;99.99
67275;DHT22;55463;52.324;5.122;2022-12-01T05:44:32;4.23;99.76
67275;DHT22;55463;52.324;5.122;2022-12-01T05:46:58;4.25;99.99
67275;DHT22;55463;52.324;5.122;2022-12-01T05:49:23;4.29;99.99
67275;DHT22;55463;52.324;5.122;2022-12-01T05:51:48;4.30;99.99
67275;DHT22;55463;52.324;5.122;2022-12-01T05:54:14;4.36;99.99
67275;DHT22;55463;52.324;5.122;2022-12-01T05:56:40;4.36;99.99
67275;DHT22;55463;52.324;5.122;2022-12-01T05:59:05;4.41;99.99
67275;DHT22;55463;52.324;5.122;2022-12-01T06:01:31;4.41;99.99
67275;DHT22;55463;52.324;5.122;2022-12-01T06:03:56;4.40;99.99
67275;DHT22;55463;52.324;5.122;2022-12-01T06:06:21;4.45;99.99
67275;DHT22;55463;52.324;5.122;2022-12-01T06:08:47;4.47;99.99
67275;DHT22;55463;52.324;5.122;2022-12-01T06:11:12;4.51;99.99
67275;DHT22;55463;52.324;5.122;2022-12-01T06:13:37;4.51;99.99
67275;DHT22;55463;52.324;5.122;2022-12-01T06:16:04;4.54;99.99
67275;DHT22;55463;52.324;5.122;2022-12-01T06:18:35;4.52;99.99
67275;DHT22;55463;52.324;5.122;2022-12-01T06:21:01;4.57;99.99
67275;DHT22;55463;52.324;5.122;2022-12-01T06:23:27;4.58;99.99
67275;DHT22;55463;52.324;5.122;2022-12-01T06:25:52;4.62;99.99
67275;DHT22;55463;52.324;5.122;2022-12-01T06:28:17;4.67;99.99
67275;DHT22;55463;52.324;5.122;2022-12-01T06:30:43;4.68;99.99
67275;DHT22;55463;52.324;5.122;2022-12-01T06:33:09;4.72;99.99
67275;DHT22;55463;52.324;5.122;2022-12-01T06:35:35;4.75;99.99
67275;DHT22;55463;52.324;5.122;2022-12-01T06:38:00;4.82;99.99
67275;DHT22;55463;52.324;5.122;2022-12-01T06:40:26;4.86;99.99
67275;DHT22;55463;52.324;5.122;2022-12-01T06:42:51;4.86;99.99
67275;DHT22;55463;52.324;5.122;2022-12-01T06:45:17;4.89;99.99
67275;DHT22;55463;52.324;5.122;2022-12-01T06:47:42;4.89;99.99
67275;DHT22;55463;52.324;5.122;2022-12-01T06:50:08;4.87;99.99
67275;DHT22;55463;52.324;5.122;2022-12-01T06:52:35;4.92;99.99
67275;DHT22;55463;52.324;5.122;2022-12-01T06:55:01;4.90;99.99
67275;DHT22;55463;52.324;5.122;2022-12-01T06:57:28;4.92;99.99
67275;DHT22;55463;52.324;5.122;2022-12-01T06:59:53;4.95;99.99
67275;DHT22;55463;52.324;5.122;2022-12-01T07:02:19;5.00;99.99
67275;DHT22;55463;52.324;5.122;2022-12-01T07:04:44;5.00;99.99
67275;DHT22;55463;52.324;5.122;2022-12-01T07:07:09;5.03;99.99
67275;DHT22;55463;52.324;5.122;2022-12-01T07:09:36;5.06;99.99
67275;DHT22;55463;52.324;5.122;2022-12-01T07:12:01;5.07;99.99
67275;DHT22;55463;52.324;5.122;2022-12-01T07:14:27;5.10;99.99
67275;DHT22;55463;52.324;5.122;2022-12-01T07:16:53;5.10;99.99
67275;DHT22;55463;52.324;5.122;2022-12-01T07:19:18;5.10;99.99
67275;DHT22;55463;52.324;5.122;2022-12-01T07:21:43;5.10;99.99
67275;DHT22;55463;52.324;5.122;2022-12-01T07:24:09;5.13;99.99
67275;DHT22;55463;52.324;5.122;2022-12-01T07:26:37;5.16;99.99
67275;DHT22;55463;52.324;5.122;2022-12-01T07:29:02;5.16;99.99
67275;DHT22;55463;52.324;5.122;2022-12-01T07:31:28;5.19;99.99
67275;DHT22;55463;52.324;5.122;2022-12-01T07:33:54;5.23;99.99
67275;DHT22;55463;52.324;5.122;2022-12-01T07:36:19;5.20;99.99
67275;DHT22;55463;52.324;5.122;2022-12-01T07:38:45;5.24;99.99
67275;DHT22;55463;52.324;5.122;2022-12-01T07:41:12;5.24;99.96
67275;DHT22;55463;52.324;5.122;2022-12-01T07:43:39;5.27;99.90
67275;DHT22;55463;52.324;5.122;2022-12-01T07:46:18;5.28;99.86
67275;DHT22;55463;52.324;5.122;2022-12-01T07:48:44;5.28;99.80
67275;DHT22;55463;52.324;5.122;2022-12-01T07:51:12;5.27;99.79
67275;DHT22;55463;52.324;5.122;2022-12-01T07:53:39;5.32;99.77
67275;DHT22;55463;52.324;5.122;2022-12-01T07:56:05;5.30;99.99
67275;DHT22;55463;52.324;5.122;2022-12-01T07:58:30;5.35;99.95
67275;DHT22;55463;52.324;5.122;2022-12-01T08:00:57;5.40;99.99
67275;DHT22;55463;52.324;5.122;2022-12-01T08:03:23;5.42;99.96
67275;DHT22;55463;52.324;5.122;2022-12-01T08:05:58;5.49;99.81
67275;DHT22;55463;52.324;5.122;2022-12-01T08:08:24;5.52;99.77
67275;DHT22;55463;52.324;5.122;2022-12-01T08:10:51;5.56;99.76
67275;DHT22;55463;52.324;5.122;2022-12-01T08:13:16;5.58;99.74
67275;DHT22;55463;52.324;5.122;2022-12-01T08:15:42;5.59;99.67
67275;DHT22;55463;52.324;5.122;2022-12-01T08:18:07;5.62;99.42
67275;DHT22;55463;52.324;5.122;2022-12-01T08:20:33;5.68;99.37
67275;DHT22;55463;52.324;5.122;2022-12-01T08:23:02;5.72;99.33
67275;DHT22;55463;52.324;5.122;2022-12-01T08:25:28;5.75;98.96
67275;DHT22;55463;52.324;5.122;2022-12-01T08:27:54;5.76;98.79
67275;DHT22;55463;52.324;5.122;2022-12-01T08:30:20;5.82;98.82
67275;DHT22;55463;52.324;5.122;2022-12-01T08:32:45;5.82;98.61
67275;DHT22;55463;52.324;5.122;2022-12-01T08:35:11;5.86;98.60
67275;DHT22;55463;52.324;5.122;2022-12-01T08:37:36;5.87;98.78
67275;DHT22;55463;52.324;5.122;2022-12-01T08:40:01;5.92;98.77
67275;DHT22;55463;52.324;5.122;2022-12-01T08:42:27;5.94;98.91
67275;DHT22;55463;52.324;5.122;2022-12-01T08:44:52;5.96;98.88
67275;DHT22;55463;52.324;5.122;2022-12-01T08:47:17;6.02;98.98
67275;DHT22;55463;52.324;5.122;2022-12-01T08:49:43;6.04;99.01
67275;DHT22;55463;52.324;5.122;2022-12-01T08:52:08;6.07;98.78
67275;DHT22;55463;52.324;5.122;2022-12-01T08:54:33;6.03;98.69
67275;DHT22;55463;52.324;5.122;2022-12-01T08:56:59;5.97;98.45
67275;DHT22;55463;52.324;5.122;2022-12-01T08:59:24;5.90;98.22
67275;DHT22;55463;52.324;5.122;2022-12-01T09:01:50;5.87;98.19
67275;DHT22;55463;52.324;5.122;2022-12-01T09:04:22;5.82;98.47
67275;DHT22;55463;52.324;5.122;2022-12-01T09:06:50;5.76;98.46
67275;DHT22;55463;52.324;5.122;2022-12-01T09:09:18;5.76;98.60
67275;DHT22;55463;52.324;5.122;2022-12-01T09:11:44;5.76;98.62
67275;DHT22;55463;52.324;5.122;2022-12-01T09:14:11;5.76;98.71
67275;DHT22;55463;52.324;5.122;2022-12-01T09:16:37;5.77;98.79
67275;DHT22;55463;52.324;5.122;2022-12-01T09:19:02;5.82;98.89
67275;DHT22;55463;52.324;5.122;2022-12-01T09:21:30;5.82;98.84
67275;DHT22;55463;52.324;5.122;2022-12-01T09:23:57;5.85;98.59
67275;DHT22;55463;52.324;5.122;2022-12-01T09:26:22;5.86;98.67
67275;DHT22;55463;52.324;5.122;2022-12-01T09:28:52;5.89;98.67
67275;DHT22;55463;52.324;5.122;2022-12-01T09:31:18;5.92;98.63
67275;DHT22;55463;52.324;5.122;2022-12-01T09:33:45;5.92;98.65
67275;DHT22;55463;52.324;5.122;2022-12-01T09:36:10;5.92;98.37
67275;DHT22;55463;52.324;5.122;2022-12-01T09:38:37;5.94;98.56
67275;DHT22;55463;52.324;5.122;2022-12-01T09:41:25;6.02;98.33
67275;DHT22;55463;52.324;5.122;2022-12-01T09:46:57;6.06;98.29
67275;DHT22;55463;52.324;5.122;2022-12-01T09:49:34;6.10;98.43
67275;DHT22;55463;52.324;5.122;2022-12-01T09:52:20;6.14;98.38
67275;DHT22;55463;52.324;5.122;2022-12-01T09:54:46;6.20;98.34
67275;DHT22;55463;52.324;5.122;2022-12-01T09:57:24;6.20;98.20
67275;DHT22;55463;52.324;5.122;2022-12-01T10:00:26;6.30;98.03
67275;DHT22;55463;52.324;5.122;2022-12-01T10:08:17;6.45;97.96
67275;DHT22;55463;52.324;5.122;2022-12-01T10:10:47;6.49;97.49
67275;DHT22;55463;52.324;5.122;2022-12-01T10:13:27;6.58;97.09
67275;DHT22;55463;52.324;5.122;2022-12-01T10:30:21;7.22;96.09
67275;DHT22;55463;52.324;5.122;2022-12-01T10:32:56;7.31;95.86
67275;DHT22;55463;52.324;5.122;2022-12-01T10:35:28;7.36;95.34
67275;DHT22;55463;52.324;5.122;2022-12-01T10:44:03;7.20;94.16
67275;DHT22;55463;52.324;5.122;2022-12-01T10:46:43;7.22;94.95
67275;DHT22;55463;52.324;5.122;2022-12-01T10:49:34;7.18;94.20
67275;DHT22;55463;52.324;5.122;2022-12-01T10:52:00;7.15;93.43
67275;DHT22;55463;52.324;5.122;2022-12-01T10:54:35;7.13;94.26
67275;DHT22;55463;52.324;5.122;2022-12-01T10:57:20;7.17;94.32
67275;DHT22;55463;52.324;5.122;2022-12-01T11:02:19;7.34;94.53
67275;DHT22;55463;52.324;5.122;2022-12-01T11:07:45;7.45;93.38
67275;DHT22;55463;52.324;5.122;2022-12-01T11:12:45;7.63;93.13
67275;DHT22;55463;52.324;5.122;2022-12-01T11:15:32;7.58;92.40
67275;DHT22;55463;52.324;5.122;2022-12-01T11:18:00;7.59;93.27
67275;DHT22;55463;52.324;5.122;2022-12-01T11:20:38;7.58;92.85
67275;DHT22;55463;52.324;5.122;2022-12-01T11:28:59;7.54;93.27
67275;DHT22;55463;52.324;5.122;2022-12-01T11:31:48;7.42;91.87
67275;DHT22;55463;52.324;5.122;2022-12-01T11:34:31;7.44;91.52
67275;DHT22;55463;52.324;5.122;2022-12-01T11:37:16;7.55;92.69
67275;DHT22;55463;52.324;5.122;2022-12-01T11:39:43;7.66;92.91
67275;DHT22;55463;52.324;5.122;2022-12-01T11:42:27;7.66;92.58
67275;DHT22;55463;52.324;5.122;2022-12-01T11:44:56;7.54;91.77
67275;DHT22;55463;52.324;5.122;2022-12-01T11:47:26;7.32;90.94
67275;DHT22;55463;52.324;5.122;2022-12-01T11:52:46;7.42;91.52
67275;DHT22;55463;52.324;5.122;2022-12-01T11:57:42;7.49;90.95
67275;DHT22;55463;52.324;5.122;2022-12-01T12:00:27;7.59;92.34
67275;DHT22;55463;52.324;5.122;2022-12-01T12:03:00;7.67;92.11
67275;DHT22;55463;52.324;5.122;2022-12-01T12:06:06;7.63;91.32
67275;DHT22;55463;52.324;5.122;2022-12-01T12:11:45;7.66;92.03
67275;DHT22;55463;52.324;5.122;2022-12-01T12:14:36;7.59;91.13
67275;DHT22;55463;52.324;5.122;2022-12-01T12:17:43;7.58;92.20
67275;DHT22;55463;52.324;5.122;2022-12-01T12:20:27;7.66;92.38
67275;DHT22;55463;52.324;5.122;2022-12-01T12:26:23;8.04;91.99
67275;DHT22;55463;52.324;5.122;2022-12-01T12:38:46;7.75;92.12
67275;DHT22;55463;52.324;5.122;2022-12-01T12:41:14;7.76;91.93
67275;DHT22;55463;52.324;5.122;2022-12-01T12:52:27;7.83;92.03
67275;DHT22;55463;52.324;5.122;2022-12-01T12:54:56;7.77;92.32
67275;DHT22;55463;52.324;5.122;2022-12-01T12:57:33;7.84;92.39
67275;DHT22;55463;52.324;5.122;2022-12-01T13:02:56;7.93;92.86
67275;DHT22;55463;52.324;5.122;2022-12-01T13:05:49;7.89;93.00
67275;DHT22;55463;52.324;5.122;2022-12-01T13:08:23;7.82;92.11
67275;DHT22;55463;52.324;5.122;2022-12-01T13:10:59;7.80;92.58
67275;DHT22;55463;52.324;5.122;2022-12-01T13:16:25;7.63;91.87
67275;DHT22;55463;52.324;5.122;2022-12-01T13:18:56;7.65;92.78
67275;DHT22;55463;52.324;5.122;2022-12-01T13:21:38;7.63;92.57
67275;DHT22;55463;52.324;5.122;2022-12-01T13:24:05;7.63;92.95
67275;DHT22;55463;52.324;5.122;2022-12-01T13:26:34;7.56;91.65
67275;DHT22;55463;52.324;5.122;2022-12-01T13:29:04;7.56;91.67
67275;DHT22;55463;52.324;5.122;2022-12-01T13:31:49;7.49;91.57
67275;DHT22;55463;52.324;5.122;2022-12-01T13:34:37;7.52;92.18
67275;DHT22;55463;52.324;5.122;2022-12-01T13:37:25;7.52;91.31
67275;DHT22;55463;52.324;5.122;2022-12-01T13:39:53;7.51;92.30
67275;DHT22;55463;52.324;5.122;2022-12-01T13:42:25;7.54;92.47
67275;DHT22;55463;52.324;5.122;2022-12-01T13:44:52;7.49;92.48
67275;DHT22;55463;52.324;5.122;2022-12-01T13:58:50;7.21;93.23
67275;DHT22;55463;52.324;5.122;2022-12-01T14:03:59;7.17;92.86
67275;DHT22;55463;52.324;5.122;2022-12-01T14:06:49;7.22;92.12
67275;DHT22;55463;52.324;5.122;2022-12-01T14:15:21;6.97;92.50
67275;DHT22;55463;52.324;5.122;2022-12-01T14:18:03;6.94;92.88
67275;DHT22;55463;52.324;5.122;2022-12-01T14:20:32;6.87;92.44
67275;DHT22;55463;52.324;5.122;2022-12-01T14:23:13;6.83;92.75
67275;DHT22;55463;52.324;5.122;2022-12-01T14:26:16;6.75;93.09
67275;DHT22;55463;52.324;5.122;2022-12-01T14:29:08;6.75;93.31
67275;DHT22;55463;52.324;5.122;2022-12-01T14:34:14;6.59;93.43
67275;DHT22;55463;52.324;5.122;2022-12-01T14:39:29;6.44;93.45
67275;DHT22;55463;52.324;5.122;2022-12-01T14:41:57;6.44;93.53
67275;DHT22;55463;52.324;5.122;2022-12-01T14:44:53;6.39;93.43
67275;DHT22;55463;52.324;5.122;2022-12-01T14:48:31;6.37;93.45
67275;DHT22;55463;52.324;5.122;2022-12-01T14:50:52;6.31;93.79
67275;DHT22;55463;52.324;5.122;2022-12-01T14:53:24;6.22;93.91
67275;DHT22;55463;52.324;5.122;2022-12-01T14:55:54;6.21;93.91
67275;DHT22;55463;52.324;5.122;2022-12-01T14:58:32;6.16;93.95
67275;DHT22;55463;52.324;5.122;2022-12-01T15:01:08;6.10;94.11
67275;DHT22;55463;52.324;5.122;2022-12-01T15:03:44;6.04;94.19
67275;DHT22;55463;52.324;5.122;2022-12-01T15:06:18;6.04;93.86
67275;DHT22;55463;52.324;5.122;2022-12-01T15:08:44;6.00;93.89
67275;DHT22;55463;52.324;5.122;2022-12-01T15:11:22;5.94;93.82
67275;DHT22;55463;52.324;5.122;2022-12-01T15:13:51;5.86;94.14
67275;DHT22;55463;52.324;5.122;2022-12-01T15:16:19;5.80;94.19
67275;DHT22;55463;52.324;5.122;2022-12-01T15:18:45;5.73;94.34
67275;DHT22;55463;52.324;5.122;2022-12-01T15:21:21;5.68;94.51
67275;DHT22;55463;52.324;5.122;2022-12-01T15:24:20;5.60;94.52
67275;DHT22;55463;52.324;5.122;2022-12-01T15:26:48;5.55;94.64
67275;DHT22;55463;52.324;5.122;2022-12-01T15:29:28;5.49;94.46
67275;DHT22;55463;52.324;5.122;2022-12-01T15:31:57;5.45;94.63
67275;DHT22;55463;52.324;5.122;2022-12-01T15:34:33;5.40;94.60
67275;DHT22;55463;52.324;5.122;2022-12-01T15:37:03;5.37;94.75
67275;DHT22;55463;52.324;5.122;2022-12-01T15:39:32;5.31;94.79
67275;DHT22;55463;52.324;5.122;2022-12-01T15:41:59;5.28;94.83
67275;DHT22;55463;52.324;5.122;2022-12-01T15:44:28;5.28;95.00
67275;DHT22;55463;52.324;5.122;2022-12-01T15:46:54;5.28;95.13
67275;DHT22;55463;52.324;5.122;2022-12-01T15:49:24;5.31;95.38
67275;DHT22;55463;52.324;5.122;2022-12-01T15:52:03;5.35;95.45
67275;DHT22;55463;52.324;5.122;2022-12-01T15:54:29;5.44;95.53
67275;DHT22;55463;52.324;5.122;2022-12-01T15:56:56;5.44;95.60
67275;DHT22;55463;52.324;5.122;2022-12-01T15:59:30;5.47;95.61
67275;DHT22;55463;52.324;5.122;2022-12-01T16:01:57;5.48;95.47
67275;DHT22;55463;52.324;5.122;2022-12-01T16:04:26;5.47;95.44
67275;DHT22;55463;52.324;5.122;2022-12-01T16:07:02;5.47;95.22
67275;DHT22;55463;52.324;5.122;2022-12-01T16:09:34;5.47;94.97
67275;DHT22;55463;52.324;5.122;2022-12-01T16:12:03;5.37;94.82
67275;DHT22;55463;52.324;5.122;2022-12-01T16:14:28;5.32;94.68
67275;DHT22;55463;52.324;5.122;2022-12-01T16:16:55;5.27;94.63
67275;DHT22;55463;52.324;5.122;2022-12-01T16:19:24;5.19;94.81
67275;DHT22;55463;52.324;5.122;2022-12-01T16:21:54;5.14;94.91
67275;DHT22;55463;52.324;5.122;2022-12-01T16:24:55;5.04;94.72
67275;DHT22;55463;52.324;5.122;2022-12-01T16:27:23;4.99;94.68
67275;DHT22;55463;52.324;5.122;2022-12-01T16:29:51;4.93;95.00
67275;DHT22;55463;52.324;5.122;2022-12-01T16:32:20;4.89;95.14
67275;DHT22;55463;52.324;5.122;2022-12-01T16:34:46;4.83;95.13
67275;DHT22;55463;52.324;5.122;2022-12-01T16:37:13;4.78;95.19
67275;DHT22;55463;52.324;5.122;2022-12-01T16:39:39;4.71;95.22
67275;DHT22;55463;52.324;5.122;2022-12-01T16:42:04;4.64;95.25
67275;DHT22;55463;52.324;5.122;2022-12-01T16:44:29;4.57;95.37
67275;DHT22;55463;52.324;5.122;2022-12-01T16:46:55;4.55;95.43
67275;DHT22;55463;52.324;5.122;2022-12-01T16:49:20;4.52;95.76
67275;DHT22;55463;52.324;5.122;2022-12-01T16:51:46;4.49;95.78
67275;DHT22;55463;52.324;5.122;2022-12-01T16:54:11;4.41;95.35
67275;DHT22;55463;52.324;5.122;2022-12-01T16:56:37;4.41;95.26
67275;DHT22;55463;52.324;5.122;2022-12-01T16:59:02;4.33;95.24
67275;DHT22;55463;52.324;5.122;2022-12-01T17:01:29;4.30;95.94
67275;DHT22;55463;52.324;5.122;2022-12-01T17:03:55;4.23;95.40
67275;DHT22;55463;52.324;5.122;2022-12-01T17:06:20;4.18;95.41
67275;DHT22;55463;52.324;5.122;2022-12-01T17:08:46;4.13;95.44
67275;DHT22;55463;52.324;5.122;2022-12-01T17:11:12;4.10;95.58
67275;DHT22;55463;52.324;5.122;2022-12-01T17:13:37;4.06;95.90
67275;DHT22;55463;52.324;5.122;2022-12-01T17:16:04;4.06;95.68
67275;DHT22;55463;52.324;5.122;2022-12-01T17:18:32;3.99;95.53
67275;DHT22;55463;52.324;5.122;2022-12-01T17:21:00;3.93;95.44
67275;DHT22;55463;52.324;5.122;2022-12-01T17:23:26;3.90;96.02
67275;DHT22;55463;52.324;5.122;2022-12-01T17:25:52;3.86;95.81
67275;DHT22;55463;52.324;5.122;2022-12-01T17:28:17;3.86;95.99
67275;DHT22;55463;52.324;5.122;2022-12-01T17:30:43;3.81;96.55
67275;DHT22;55463;52.324;5.122;2022-12-01T17:33:09;3.76;96.81
67275;DHT22;55463;52.324;5.122;2022-12-01T17:35:37;3.72;96.40
67275;DHT22;55463;52.324;5.122;2022-12-01T17:38:02;3.68;96.25
67275;DHT22;55463;52.324;5.122;2022-12-01T17:40:28;3.62;96.93
67275;DHT22;55463;52.324;5.122;2022-12-01T17:42:53;3.58;96.32
67275;DHT22;55463;52.324;5.122;2022-12-01T17:45:18;3.57;96.97
67275;DHT22;55463;52.324;5.122;2022-12-01T17:47:44;3.55;96.62
67275;DHT22;55463;52.324;5.122;2022-12-01T17:50:09;3.51;97.52
67275;DHT22;55463;52.324;5.122;2022-12-01T17:52:35;3.48;97.15
67275;DHT22;55463;52.324;5.122;2022-12-01T17:55:00;3.44;97.16
67275;DHT22;55463;52.324;5.122;2022-12-01T17:57:25;3.45;97.88
67275;DHT22;55463;52.324;5.122;2022-12-01T17:59:51;3.42;97.18
67275;DHT22;55463;52.324;5.122;2022-12-01T18:02:16;3.50;97.75
67275;DHT22;55463;52.324;5.122;2022-12-01T18:04:41;3.55;98.18
67275;DHT22;55463;52.324;5.122;2022-12-01T18:07:07;3.59;98.59
67275;DHT22;55463;52.324;5.122;2022-12-01T18:09:32;3.71;99.06
67275;DHT22;55463;52.324;5.122;2022-12-01T18:11:58;3.74;98.97
67275;DHT22;55463;52.324;5.122;2022-12-01T18:14:24;3.75;98.56
67275;DHT22;55463;52.324;5.122;2022-12-01T18:16:50;3.78;98.21
67275;DHT22;55463;52.324;5.122;2022-12-01T18:19:16;3.74;97.83